FDX36 EDDF-LFPG
Flight info
| Callsign | FDX36 |
|---|---|
| Flight time | 0h 52m |
| Altitude | 37000 |
| Route | SOBRA2L/18 SOBRA Y180 DIK UN857 TOLVU DCT RAPOR DCT VEDUS VEDUS9W |
| Aircraft | MD11/H-SDE1E2E3FGHIJ2J3J4J5M1RWXY/LB1D1 |
Departure
| Time | 2026-05-05 19:55 |
|---|---|
| Airport | Frankfurt Main Airport (EDDF) |
Arrival
| Time | 2026-05-05 20:47 |
|---|---|
| Airport | Charles de Gaulle International Airport (LFPG) |
| Time | Latitude | Longitude | Altitude | Speed | Heading |
|---|---|---|---|---|---|
| 2026-05-05 19:21 | 50.03795 | 8.53388 | 361 ft | 0 kts | 339° |
| 2026-05-05 19:42 | 50.03794 | 8.53389 | 353 ft | 1 kts | 339° |
| 2026-05-05 19:42 | 50.03780 | 8.53397 | 362 ft | 3 kts | 348° |
| 2026-05-05 19:43 | 50.03761 | 8.53402 | 362 ft | 3 kts | 360° |
| 2026-05-05 19:43 | 50.03741 | 8.53401 | 362 ft | 3 kts | 358° |
| 2026-05-05 19:43 | 50.03727 | 8.53402 | 362 ft | 2 kts | 352° |
| 2026-05-05 19:43 | 50.03710 | 8.53407 | 363 ft | 3 kts | 331° |
| 2026-05-05 19:44 | 50.03699 | 8.53417 | 363 ft | 3 kts | 292° |
| 2026-05-05 19:44 | 50.03696 | 8.53435 | 363 ft | 3 kts | 252° |
| 2026-05-05 19:44 | 50.03703 | 8.53463 | 363 ft | 3 kts | 244° |
| 2026-05-05 19:44 | 50.03710 | 8.53485 | 363 ft | 1 kts | 247° |
| 2026-05-05 19:45 | 50.03711 | 8.53491 | 363 ft | 0 kts | 247° |
| 2026-05-05 19:48 | 50.03708 | 8.53480 | 363 ft | 3 kts | 247° |
| 2026-05-05 19:48 | 50.03693 | 8.53424 | 363 ft | 9 kts | 247° |
| 2026-05-05 19:49 | 50.03658 | 8.53289 | 359 ft | 16 kts | 249° |
| 2026-05-05 19:49 | 50.03618 | 8.53115 | 361 ft | 18 kts | 252° |
| 2026-05-05 19:49 | 50.03576 | 8.52930 | 360 ft | 19 kts | 250° |
| 2026-05-05 19:49 | 50.03530 | 8.52736 | 360 ft | 20 kts | 250° |
| 2026-05-05 19:50 | 50.03506 | 8.52527 | 360 ft | 19 kts | 262° |
| 2026-05-05 19:50 | 50.03467 | 8.52353 | 361 ft | 15 kts | 239° |
| 2026-05-05 19:50 | 50.03396 | 8.52317 | 357 ft | 7 kts | 151° |
| 2026-05-05 19:50 | 50.03388 | 8.52342 | 362 ft | 1 kts | 95° |
| 2026-05-05 19:51 | 50.03389 | 8.52345 | 362 ft | 0 kts | 84° |
| 2026-05-05 19:51 | 50.03392 | 8.52363 | 357 ft | 4 kts | 79° |
| 2026-05-05 19:52 | 50.03395 | 8.52409 | 359 ft | 5 kts | 85° |
| 2026-05-05 19:52 | 50.03395 | 8.52417 | 359 ft | 0 kts | 85° |
| 2026-05-05 19:52 | 50.03395 | 8.52419 | 353 ft | 1 kts | 85° |
| 2026-05-05 19:53 | 50.03397 | 8.52451 | 360 ft | 4 kts | 85° |
| 2026-05-05 19:53 | 50.03397 | 8.52509 | 355 ft | 6 kts | 97° |
| 2026-05-05 19:53 | 50.03375 | 8.52565 | 362 ft | 7 kts | 137° |
| 2026-05-05 19:53 | 50.03332 | 8.52590 | 361 ft | 7 kts | 169° |
| 2026-05-05 19:54 | 50.03317 | 8.52591 | 358 ft | 0 kts | 177° |
| 2026-05-05 19:54 | 50.03308 | 8.52592 | 358 ft | 4 kts | 177° |
| 2026-05-05 19:54 | 50.03240 | 8.52596 | 356 ft | 22 kts | 178° |
| 2026-05-05 19:54 | 50.02838 | 8.52598 | 355 ft | 97 kts | 179° |
| 2026-05-05 19:55 | 50.01924 | 8.52611 | 355 ft | 161 kts | 180° |
| 2026-05-05 19:55 | 50.00715 | 8.52605 | 681 ft | 178 kts | 179° |
| 2026-05-05 19:55 | 49.99498 | 8.52619 | 1489 ft | 172 kts | 181° |
| 2026-05-05 19:55 | 49.98308 | 8.52674 | 2298 ft | 170 kts | 180° |
| 2026-05-05 19:56 | 49.97125 | 8.52743 | 3055 ft | 172 kts | 180° |
| 2026-05-05 19:56 | 49.95901 | 8.52833 | 3465 ft | 182 kts | 180° |
| 2026-05-05 19:56 | 49.94548 | 8.52939 | 3712 ft | 206 kts | 180° |
| 2026-05-05 19:56 | 49.93019 | 8.53053 | 3941 ft | 229 kts | 179° |
| 2026-05-05 19:57 | 49.91413 | 8.53175 | 4029 ft | 231 kts | 179° |
| 2026-05-05 19:57 | 49.89807 | 8.53298 | 4028 ft | 229 kts | 179° |
| 2026-05-05 19:57 | 49.88239 | 8.53383 | 4212 ft | 228 kts | 185° |
| 2026-05-05 19:57 | 49.86666 | 8.52945 | 4819 ft | 241 kts | 197° |
| 2026-05-05 19:58 | 49.84982 | 8.52095 | 5330 ft | 259 kts | 201° |
| 2026-05-05 19:58 | 49.83282 | 8.51155 | 6261 ft | 264 kts | 201° |
| 2026-05-05 19:58 | 49.81550 | 8.50137 | 7132 ft | 267 kts | 205° |
| 2026-05-05 19:58 | 49.79902 | 8.48769 | 8010 ft | 270 kts | 215° |
| 2026-05-05 19:59 | 49.78475 | 8.46875 | 8863 ft | 273 kts | 228° |
| 2026-05-05 19:59 | 49.77376 | 8.44461 | 9695 ft | 276 kts | 242° |
| 2026-05-05 19:59 | 49.76678 | 8.41644 | 10254 ft | 291 kts | 255° |
| 2026-05-05 19:59 | 49.76447 | 8.38389 | 10397 ft | 320 kts | 271° |
| 2026-05-05 20:00 | 49.76766 | 8.34830 | 10563 ft | 346 kts | 281° |
| 2026-05-05 20:00 | 49.77371 | 8.31178 | 11263 ft | 353 kts | 284° |
| 2026-05-05 20:00 | 49.78026 | 8.27538 | 12042 ft | 357 kts | 284° |
| 2026-05-05 20:00 | 49.78688 | 8.23807 | 12801 ft | 361 kts | 283° |
| 2026-05-05 20:01 | 49.79335 | 8.20033 | 13577 ft | 365 kts | 283° |
| 2026-05-05 20:01 | 49.79975 | 8.16190 | 14225 ft | 369 kts | 283° |
| 2026-05-05 20:01 | 49.80608 | 8.12310 | 14862 ft | 374 kts | 282° |
| 2026-05-05 20:01 | 49.81240 | 8.08383 | 15469 ft | 378 kts | 282° |
| 2026-05-05 20:02 | 49.81876 | 8.04406 | 16072 ft | 383 kts | 282° |
| 2026-05-05 20:02 | 49.82505 | 8.00430 | 16646 ft | 387 kts | 282° |
| 2026-05-05 20:02 | 49.83146 | 7.96350 | 17226 ft | 392 kts | 282° |
| 2026-05-05 20:02 | 49.83795 | 7.92221 | 17802 ft | 396 kts | 282° |
| 2026-05-05 20:03 | 49.84450 | 7.88046 | 18324 ft | 400 kts | 282° |
| 2026-05-05 20:03 | 49.85111 | 7.83824 | 18814 ft | 404 kts | 282° |
| 2026-05-05 20:03 | 49.85778 | 7.79568 | 19306 ft | 407 kts | 282° |
| 2026-05-05 20:03 | 49.86443 | 7.75320 | 19781 ft | 411 kts | 282° |
| 2026-05-05 20:04 | 49.87120 | 7.70999 | 20248 ft | 414 kts | 282° |
| 2026-05-05 20:04 | 49.87797 | 7.66640 | 20735 ft | 418 kts | 282° |
| 2026-05-05 20:04 | 49.88480 | 7.62234 | 21220 ft | 421 kts | 282° |
| 2026-05-05 20:04 | 49.89165 | 7.57798 | 21712 ft | 424 kts | 282° |
| 2026-05-05 20:05 | 49.89857 | 7.53314 | 22217 ft | 428 kts | 282° |
| 2026-05-05 20:05 | 49.90544 | 7.48854 | 22696 ft | 432 kts | 282° |
| 2026-05-05 20:05 | 49.91245 | 7.44294 | 23190 ft | 436 kts | 282° |
| 2026-05-05 20:05 | 49.91949 | 7.39697 | 23644 ft | 439 kts | 282° |
| 2026-05-05 20:06 | 49.92659 | 7.35053 | 24078 ft | 443 kts | 282° |
| 2026-05-05 20:06 | 49.93372 | 7.30373 | 24519 ft | 447 kts | 282° |
| 2026-05-05 20:06 | 49.94080 | 7.25717 | 24957 ft | 450 kts | 282° |
| 2026-05-05 20:06 | 49.94800 | 7.20967 | 25396 ft | 454 kts | 282° |
| 2026-05-05 20:07 | 49.95526 | 7.16160 | 25836 ft | 457 kts | 282° |
| 2026-05-05 20:07 | 49.96255 | 7.11315 | 26267 ft | 461 kts | 282° |
| 2026-05-05 20:07 | 49.96988 | 7.06434 | 26697 ft | 465 kts | 282° |
| 2026-05-05 20:07 | 49.97715 | 7.01576 | 27115 ft | 468 kts | 282° |
| 2026-05-05 20:08 | 49.98455 | 6.96614 | 27520 ft | 472 kts | 282° |
| 2026-05-05 20:08 | 49.99137 | 6.91581 | 27903 ft | 475 kts | 277° |
| 2026-05-05 20:08 | 49.99412 | 6.86459 | 28318 ft | 476 kts | 269° |
| 2026-05-05 20:08 | 49.99353 | 6.81361 | 28715 ft | 479 kts | 265° |
| 2026-05-05 20:09 | 49.99142 | 6.76178 | 29116 ft | 482 kts | 264° |
| 2026-05-05 20:09 | 49.98892 | 6.70960 | 29516 ft | 485 kts | 264° |
| 2026-05-05 20:09 | 49.98657 | 6.65708 | 29876 ft | 489 kts | 264° |
| 2026-05-05 20:09 | 49.98442 | 6.60410 | 30192 ft | 491 kts | 264° |
| 2026-05-05 20:10 | 49.97992 | 6.55148 | 30515 ft | 490 kts | 255° |
| 2026-05-05 20:10 | 49.97017 | 6.50093 | 30934 ft | 486 kts | 247° |
| 2026-05-05 20:10 | 49.95712 | 6.45317 | 31354 ft | 484 kts | 243° |
| 2026-05-05 20:10 | 49.94265 | 6.40608 | 31761 ft | 482 kts | 242° |
| 2026-05-05 20:11 | 49.92807 | 6.35927 | 32176 ft | 481 kts | 242° |
| 2026-05-05 20:11 | 49.91380 | 6.31224 | 32583 ft | 480 kts | 243° |
| 2026-05-05 20:11 | 49.89974 | 6.26527 | 32968 ft | 479 kts | 242° |
| 2026-05-05 20:11 | 49.88603 | 6.21858 | 33350 ft | 478 kts | 243° |
| 2026-05-05 20:12 | 49.87262 | 6.17140 | 33726 ft | 477 kts | 244° |
| 2026-05-05 20:12 | 49.85834 | 6.12506 | 34034 ft | 474 kts | 238° |
| 2026-05-05 20:12 | 49.84123 | 6.08139 | 34331 ft | 471 kts | 233° |
| 2026-05-05 20:12 | 49.82250 | 6.03976 | 34604 ft | 469 kts | 231° |
| 2026-05-05 20:13 | 49.80337 | 5.99948 | 34890 ft | 468 kts | 231° |
| 2026-05-05 20:13 | 49.78388 | 5.95883 | 35142 ft | 468 kts | 231° |
| 2026-05-05 20:13 | 49.76463 | 5.91832 | 35404 ft | 467 kts | 232° |
| 2026-05-05 20:13 | 49.74605 | 5.87690 | 35619 ft | 468 kts | 237° |
| 2026-05-05 20:14 | 49.73125 | 5.83279 | 35867 ft | 469 kts | 244° |
| 2026-05-05 20:14 | 49.71924 | 5.78569 | 36091 ft | 470 kts | 248° |
| 2026-05-05 20:14 | 49.70865 | 5.73771 | 36324 ft | 470 kts | 250° |
| 2026-05-05 20:14 | 49.69858 | 5.69040 | 36529 ft | 469 kts | 250° |
| 2026-05-05 20:15 | 49.68826 | 5.64262 | 36751 ft | 469 kts | 249° |
| 2026-05-05 20:15 | 49.66688 | 5.54781 | 36800 ft | 468 kts | 249° |
| 2026-05-05 20:16 | 49.64478 | 5.45316 | 36806 ft | 468 kts | 248° |
| 2026-05-05 20:16 | 49.62269 | 5.35853 | 36803 ft | 468 kts | 249° |
| 2026-05-05 20:17 | 49.60191 | 5.26335 | 36803 ft | 468 kts | 250° |
| 2026-05-05 20:17 | 49.58890 | 5.16535 | 36379 ft | 468 kts | 264° |
| 2026-05-05 20:17 | 49.58823 | 5.11490 | 35209 ft | 474 kts | 269° |
| 2026-05-05 20:18 | 49.58953 | 5.06385 | 34124 ft | 477 kts | 271° |
| 2026-05-05 20:18 | 49.59126 | 5.01349 | 33287 ft | 474 kts | 271° |
| 2026-05-05 20:18 | 49.59273 | 4.96300 | 32482 ft | 468 kts | 270° |
| 2026-05-05 20:18 | 49.59375 | 4.91306 | 31707 ft | 463 kts | 270° |
| 2026-05-05 20:19 | 49.59440 | 4.86359 | 30933 ft | 458 kts | 269° |
| 2026-05-05 20:19 | 49.59482 | 4.81472 | 30176 ft | 454 kts | 269° |
| 2026-05-05 20:19 | 49.59508 | 4.76635 | 29375 ft | 449 kts | 269° |
| 2026-05-05 20:19 | 49.59525 | 4.71847 | 28601 ft | 443 kts | 269° |
| 2026-05-05 20:20 | 49.59541 | 4.67117 | 27850 ft | 438 kts | 269° |
| 2026-05-05 20:20 | 49.59559 | 4.62518 | 27512 ft | 431 kts | 269° |
| 2026-05-05 20:20 | 49.59578 | 4.57888 | 27312 ft | 429 kts | 269° |
| 2026-05-05 20:20 | 49.59596 | 4.53293 | 27115 ft | 428 kts | 269° |
| 2026-05-05 20:21 | 49.59614 | 4.48712 | 26924 ft | 426 kts | 269° |
| 2026-05-05 20:21 | 49.59631 | 4.44187 | 26728 ft | 426 kts | 269° |
| 2026-05-05 20:21 | 49.59646 | 4.39594 | 26419 ft | 428 kts | 269° |
| 2026-05-05 20:21 | 49.59659 | 4.34992 | 26072 ft | 431 kts | 269° |
| 2026-05-05 20:22 | 49.59670 | 4.30375 | 25726 ft | 427 kts | 269° |
| 2026-05-05 20:22 | 49.59680 | 4.25825 | 25288 ft | 421 kts | 269° |
| 2026-05-05 20:22 | 49.59688 | 4.21326 | 24788 ft | 416 kts | 269° |
| 2026-05-05 20:22 | 49.59694 | 4.16949 | 24259 ft | 412 kts | 269° |
| 2026-05-05 20:23 | 49.59697 | 4.12540 | 23722 ft | 409 kts | 269° |
| 2026-05-05 20:23 | 49.59533 | 4.08183 | 23036 ft | 406 kts | 260° |
| 2026-05-05 20:23 | 49.58731 | 4.04032 | 22197 ft | 402 kts | 243° |
| 2026-05-05 20:23 | 49.57375 | 4.00325 | 21725 ft | 389 kts | 236° |
| 2026-05-05 20:24 | 49.55886 | 3.96936 | 21210 ft | 383 kts | 233° |
| 2026-05-05 20:24 | 49.54359 | 3.93586 | 20489 ft | 383 kts | 233° |
| 2026-05-05 20:24 | 49.52835 | 3.90202 | 19628 ft | 386 kts | 234° |
| 2026-05-05 20:24 | 49.51310 | 3.86819 | 18833 ft | 383 kts | 230° |
| 2026-05-05 20:25 | 49.49385 | 3.84011 | 18047 ft | 378 kts | 215° |
| 2026-05-05 20:25 | 49.47432 | 3.81466 | 17657 ft | 357 kts | 227° |
| 2026-05-05 20:25 | 49.46149 | 3.78336 | 17302 ft | 351 kts | 247° |
| 2026-05-05 20:25 | 49.45600 | 3.74690 | 16964 ft | 352 kts | 262° |
| 2026-05-05 20:26 | 49.45386 | 3.70936 | 16620 ft | 352 kts | 263° |
| 2026-05-05 20:26 | 49.45093 | 3.67203 | 16250 ft | 350 kts | 259° |
| 2026-05-05 20:26 | 49.44661 | 3.63523 | 15850 ft | 348 kts | 258° |
| 2026-05-05 20:26 | 49.44196 | 3.59898 | 15613 ft | 342 kts | 257° |
| 2026-05-05 20:27 | 49.43690 | 3.56288 | 15434 ft | 350 kts | 256° |
| 2026-05-05 20:27 | 49.43132 | 3.52606 | 15242 ft | 357 kts | 255° |
| 2026-05-05 20:27 | 49.42550 | 3.48954 | 15022 ft | 352 kts | 255° |
| 2026-05-05 20:27 | 49.41904 | 3.45353 | 14864 ft | 346 kts | 251° |
| 2026-05-05 20:28 | 49.41378 | 3.43038 | 14840 ft | 344 kts | 249° |
| 2026-05-05 20:28 | 49.40207 | 3.38499 | 14829 ft | 344 kts | 247° |
| 2026-05-05 20:28 | 49.39588 | 3.36200 | 14820 ft | 344 kts | 246° |
| 2026-05-05 20:28 | 49.38666 | 3.32797 | 14830 ft | 345 kts | 246° |
| 2026-05-05 20:29 | 49.37757 | 3.29442 | 14819 ft | 345 kts | 246° |
| 2026-05-05 20:29 | 49.36838 | 3.26037 | 14822 ft | 345 kts | 247° |
| 2026-05-05 20:29 | 49.35917 | 3.22620 | 14821 ft | 346 kts | 247° |
| 2026-05-05 20:29 | 49.34993 | 3.19189 | 14820 ft | 346 kts | 247° |
| 2026-05-05 20:30 | 49.34088 | 3.15829 | 14823 ft | 346 kts | 247° |
| 2026-05-05 20:30 | 49.33165 | 3.12407 | 14826 ft | 346 kts | 247° |
| 2026-05-05 20:30 | 49.32248 | 3.09006 | 14827 ft | 346 kts | 247° |
| 2026-05-05 20:30 | 49.31324 | 3.05586 | 14826 ft | 346 kts | 247° |
| 2026-05-05 20:31 | 49.30400 | 3.02170 | 14794 ft | 346 kts | 247° |
| 2026-05-05 20:31 | 49.29477 | 2.98763 | 14451 ft | 345 kts | 247° |
| 2026-05-05 20:31 | 49.28570 | 2.95421 | 14125 ft | 343 kts | 247° |
| 2026-05-05 20:31 | 49.27651 | 2.92040 | 13800 ft | 341 kts | 247° |
| 2026-05-05 20:32 | 49.26738 | 2.88685 | 13456 ft | 341 kts | 247° |
| 2026-05-05 20:32 | 49.25823 | 2.85326 | 13226 ft | 340 kts | 247° |
| 2026-05-05 20:32 | 49.24973 | 2.82210 | 13087 ft | 340 kts | 247° |
| 2026-05-05 20:32 | 49.24058 | 2.78862 | 12880 ft | 337 kts | 247° |
| 2026-05-05 20:33 | 49.23144 | 2.75524 | 12162 ft | 339 kts | 247° |
| 2026-05-05 20:33 | 49.22227 | 2.72179 | 11240 ft | 347 kts | 247° |
| 2026-05-05 20:33 | 49.21319 | 2.68869 | 10912 ft | 330 kts | 247° |
| 2026-05-05 20:33 | 49.20466 | 2.65766 | 10731 ft | 305 kts | 247° |
| 2026-05-05 20:34 | 49.19654 | 2.62817 | 10058 ft | 299 kts | 248° |
| 2026-05-05 20:34 | 49.18848 | 2.59894 | 9361 ft | 296 kts | 248° |
| 2026-05-05 20:34 | 49.18223 | 2.56940 | 8704 ft | 288 kts | 261° |
| 2026-05-05 20:34 | 49.18007 | 2.53962 | 8086 ft | 281 kts | 269° |
| 2026-05-05 20:35 | 49.17933 | 2.51033 | 7705 ft | 273 kts | 270° |
| 2026-05-05 20:35 | 49.17880 | 2.48096 | 7340 ft | 279 kts | 270° |
| 2026-05-05 20:35 | 49.17825 | 2.45110 | 6978 ft | 282 kts | 270° |
| 2026-05-05 20:35 | 49.17765 | 2.42141 | 6845 ft | 276 kts | 270° |
| 2026-05-05 20:36 | 49.17704 | 2.39230 | 6839 ft | 273 kts | 270° |
| 2026-05-05 20:36 | 49.17620 | 2.36317 | 6835 ft | 276 kts | 269° |
| 2026-05-05 20:36 | 49.17501 | 2.33353 | 6740 ft | 281 kts | 269° |
| 2026-05-05 20:36 | 49.17373 | 2.30468 | 6610 ft | 262 kts | 268° |
| 2026-05-05 20:37 | 49.17250 | 2.27764 | 6360 ft | 250 kts | 268° |
| 2026-05-05 20:37 | 49.17132 | 2.25121 | 5939 ft | 248 kts | 269° |
| 2026-05-05 20:37 | 49.17019 | 2.22531 | 5489 ft | 247 kts | 269° |
| 2026-05-05 20:37 | 49.16658 | 2.19976 | 5077 ft | 249 kts | 247° |
| 2026-05-05 20:38 | 49.15585 | 2.17919 | 4708 ft | 250 kts | 218° |
| 2026-05-05 20:38 | 49.14118 | 2.16460 | 4333 ft | 252 kts | 211° |
| 2026-05-05 20:38 | 49.12616 | 2.15091 | 4073 ft | 249 kts | 211° |
| 2026-05-05 20:38 | 49.11154 | 2.13718 | 4036 ft | 248 kts | 212° |
| 2026-05-05 20:39 | 49.09672 | 2.12335 | 4036 ft | 248 kts | 211° |
| 2026-05-05 20:39 | 49.08210 | 2.10975 | 4035 ft | 249 kts | 211° |
| 2026-05-05 20:39 | 49.06734 | 2.09589 | 4038 ft | 248 kts | 212° |
| 2026-05-05 20:39 | 49.05248 | 2.08203 | 4035 ft | 249 kts | 211° |
| 2026-05-05 20:40 | 49.03747 | 2.06889 | 4029 ft | 249 kts | 202° |
| 2026-05-05 20:40 | 49.02099 | 2.06423 | 4029 ft | 244 kts | 173° |
| 2026-05-05 20:40 | 49.00532 | 2.07227 | 4029 ft | 235 kts | 141° |
| 2026-05-05 20:40 | 48.99512 | 2.08991 | 4042 ft | 214 kts | 114° |
| 2026-05-05 20:41 | 48.98857 | 2.11082 | 4052 ft | 216 kts | 110° |
| 2026-05-05 20:41 | 48.98248 | 2.13125 | 4016 ft | 208 kts | 104° |
| 2026-05-05 20:41 | 48.98163 | 2.15237 | 4017 ft | 198 kts | 72° |
| 2026-05-05 20:41 | 48.98701 | 2.17158 | 4056 ft | 198 kts | 60° |
| 2026-05-05 20:42 | 48.99316 | 2.19020 | 4039 ft | 198 kts | 61° |
| 2026-05-05 20:42 | 48.99912 | 2.20913 | 4033 ft | 197 kts | 62° |
| 2026-05-05 20:42 | 49.00502 | 2.22800 | 4034 ft | 197 kts | 62° |
| 2026-05-05 20:42 | 49.00976 | 2.24766 | 3999 ft | 201 kts | 75° |
| 2026-05-05 20:43 | 49.01133 | 2.26879 | 3743 ft | 204 kts | 82° |
| 2026-05-05 20:43 | 49.01227 | 2.29025 | 3469 ft | 200 kts | 81° |
| 2026-05-05 20:43 | 49.01331 | 2.31032 | 3194 ft | 176 kts | 80° |
| 2026-05-05 20:43 | 49.01423 | 2.32789 | 2918 ft | 161 kts | 79° |
| 2026-05-05 20:44 | 49.01516 | 2.34472 | 2757 ft | 159 kts | 78° |
| 2026-05-05 20:44 | 49.01611 | 2.36162 | 2558 ft | 162 kts | 78° |
| 2026-05-05 20:44 | 49.01704 | 2.37864 | 2350 ft | 164 kts | 79° |
| 2026-05-05 20:44 | 49.01798 | 2.39603 | 2141 ft | 164 kts | 79° |
| 2026-05-05 20:45 | 49.01975 | 2.43031 | 1705 ft | 161 kts | 77° |
| 2026-05-05 20:45 | 49.02070 | 2.44735 | 1472 ft | 161 kts | 78° |
| 2026-05-05 20:45 | 49.02160 | 2.46431 | 1248 ft | 164 kts | 79° |
| 2026-05-05 20:46 | 49.02250 | 2.48170 | 1015 ft | 165 kts | 81° |
| 2026-05-05 20:46 | 49.02341 | 2.49922 | 760 ft | 166 kts | 82° |
| 2026-05-05 20:46 | 49.02431 | 2.51689 | 539 ft | 167 kts | 82° |
| 2026-05-05 20:46 | 49.02533 | 2.53408 | 365 ft | 148 kts | 84° |
| 2026-05-05 20:47 | 49.02600 | 2.54761 | 364 ft | 113 kts | 87° |
| 2026-05-05 20:47 | 49.02648 | 2.55706 | 365 ft | 67 kts | 86° |
| 2026-05-05 20:47 | 49.02662 | 2.56092 | 366 ft | 18 kts | 102° |
| 2026-05-05 20:47 | 49.02628 | 2.56202 | 365 ft | 6 kts | 123° |
| 2026-05-05 20:48 | 49.02625 | 2.56207 | 364 ft | 0 kts | 134° |
| 2026-05-05 20:48 | 49.02621 | 2.56207 | 369 ft | 1 kts | 156° |
| 2026-05-05 20:48 | 49.02606 | 2.56200 | 363 ft | 8 kts | 193° |
| 2026-05-05 20:48 | 49.02517 | 2.56163 | 367 ft | 16 kts | 190° |
| 2026-05-05 20:49 | 49.02394 | 2.56164 | 363 ft | 20 kts | 176° |
| 2026-05-05 20:49 | 49.02285 | 2.56206 | 368 ft | 12 kts | 143° |
| 2026-05-05 20:49 | 49.02236 | 2.56286 | 367 ft | 7 kts | 137° |
| 2026-05-05 20:49 | 49.02207 | 2.56314 | 368 ft | 3 kts | 156° |
| 2026-05-05 20:50 | 49.02187 | 2.56317 | 368 ft | 6 kts | 177° |
| 2026-05-05 20:50 | 49.02113 | 2.56324 | 363 ft | 14 kts | 175° |
| 2026-05-05 20:50 | 49.02019 | 2.56330 | 369 ft | 12 kts | 187° |
| 2026-05-05 20:50 | 49.01943 | 2.56260 | 367 ft | 15 kts | 233° |
| 2026-05-05 20:51 | 49.01911 | 2.56118 | 365 ft | 12 kts | 259° |
| 2026-05-05 20:51 | 49.01904 | 2.56004 | 366 ft | 12 kts | 266° |
| 2026-05-05 20:51 | 49.01899 | 2.55855 | 365 ft | 16 kts | 267° |
| 2026-05-05 20:51 | 49.01894 | 2.55665 | 367 ft | 20 kts | 270° |
| 2026-05-05 20:52 | 49.01881 | 2.55438 | 365 ft | 23 kts | 265° |
| 2026-05-05 20:52 | 49.01865 | 2.55173 | 367 ft | 27 kts | 264° |
| 2026-05-05 20:52 | 49.01847 | 2.54873 | 364 ft | 30 kts | 265° |
| 2026-05-05 20:52 | 49.01831 | 2.54539 | 362 ft | 33 kts | 266° |
| 2026-05-05 20:53 | 49.01816 | 2.54218 | 368 ft | 30 kts | 265° |
| 2026-05-05 20:53 | 49.01798 | 2.53897 | 362 ft | 31 kts | 265° |
| 2026-05-05 20:53 | 49.01782 | 2.53575 | 363 ft | 31 kts | 265° |
| 2026-05-05 20:53 | 49.01762 | 2.53268 | 362 ft | 29 kts | 264° |
| 2026-05-05 20:54 | 49.01745 | 2.52961 | 368 ft | 29 kts | 265° |
| 2026-05-05 20:54 | 49.01730 | 2.52648 | 369 ft | 30 kts | 265° |
| 2026-05-05 20:54 | 49.01714 | 2.52331 | 368 ft | 30 kts | 265° |
| 2026-05-05 20:54 | 49.01696 | 2.52015 | 362 ft | 30 kts | 266° |
| 2026-05-05 20:55 | 49.01679 | 2.51689 | 362 ft | 31 kts | 265° |
| 2026-05-05 20:55 | 49.01657 | 2.51361 | 365 ft | 31 kts | 259° |
| 2026-05-05 20:55 | 49.01640 | 2.51055 | 363 ft | 24 kts | 267° |
| 2026-05-05 20:55 | 49.01629 | 2.50815 | 364 ft | 23 kts | 266° |
| 2026-05-05 20:56 | 49.01619 | 2.50564 | 358 ft | 24 kts | 266° |
| 2026-05-05 20:56 | 49.01601 | 2.50431 | 362 ft | 6 kts | 237° |
| 2026-05-05 20:56 | 49.01585 | 2.50424 | 362 ft | 1 kts | 176° |
| 2026-05-05 20:56 | 49.01558 | 2.50428 | 363 ft | 7 kts | 174° |
| 2026-05-05 20:57 | 49.01493 | 2.50438 | 360 ft | 11 kts | 174° |
| 2026-05-05 20:57 | 49.01424 | 2.50443 | 363 ft | 7 kts | 182° |
| 2026-05-05 20:57 | 49.01394 | 2.50424 | 367 ft | 5 kts | 210° |
| 2026-05-05 20:57 | 49.01354 | 2.50400 | 365 ft | 7 kts | 197° |
| 2026-05-05 20:58 | 49.01299 | 2.50394 | 364 ft | 7 kts | 182° |
| 2026-05-05 20:58 | 49.01274 | 2.50382 | 362 ft | 1 kts | 210° |
| 2026-05-05 20:58 | 49.01255 | 2.50351 | 367 ft | 8 kts | 236° |
| 2026-05-05 20:58 | 49.01239 | 2.50242 | 364 ft | 10 kts | 265° |
| 2026-05-05 20:59 | 49.01237 | 2.50192 | 363 ft | 0 kts | 267° |